Time;durP1;ratioP1;P1;durP2;ratioP2;P2;SDS_P1;SDS_P2;PMS_P1;PMS_P2;Temp;Humidity;BMP_temperature;BMP_pressure;BME280_temperature;BME280_humidity;BME280_pressure;Samples;Min_cycle;Max_cycle;Signal;HPM_P1;HPM_P2
2021/01/31 00:01:51;;;;;;;;;;;;;;;18.85;54.49;99641.19;4961166;28;1580;-67
2021/01/31 00:04:17;;;;;;;;;;;;;;;18.83;54.41;99632.56;4951585;28;1342;-68
2021/01/31 00:06:44;;;;;;;;;;;;;;;18.84;54.28;99634.25;4951317;28;1222;-68
2021/01/31 00:09:10;;;;;;;;;;;;;;;18.83;54.43;99637.81;4958289;28;964;-68
2021/01/31 00:11:37;;;;;;;;;;;;;;;18.78;54.30;99631.22;4970784;28;1231;-67
2021/01/31 00:14:03;;;;;;;;;;;;;;;18.82;54.15;99635.28;4958877;28;1906;-68
2021/01/31 00:16:29;;;;;;;;;;;;;;;18.80;54.57;99635.41;4951246;29;1249;-68
2021/01/31 00:18:55;;;;;;;;;;;;;;;18.80;54.20;99642.50;4967975;28;1128;-67
2021/01/31 00:21:22;;;;;;;;;;;;;;;18.79;54.16;99644.28;4966510;28;1227;-67
2021/01/31 00:23:48;;;;;;;;;;;;;;;18.79;54.37;99636.38;4950956;28;1039;-67
2021/01/31 00:26:18;;;;;;;;;;;;;;;18.79;54.36;99648.72;4932816;29;1811;-68
2021/01/31 00:28:45;;;;;;;;;;;;;;;18.81;54.50;99642.38;4935359;29;947;-68
2021/01/31 00:31:11;;;;;;;;;;;;;;;18.78;54.47;99637.34;4930431;29;1226;-68
2021/01/31 00:33:38;;;;;;;;;;;;;;;18.79;54.34;99615.25;4931876;29;1915;-68
2021/01/31 00:36:04;;;;;;;;;;;;;;;18.79;54.09;99639.00;4965756;28;1348;-68
2021/01/31 00:38:30;;;;;;;;;;;;;;;18.78;54.45;99632.06;4970347;28;996;-70
2021/01/31 00:40:57;;;;;;;;;;;;;;;18.81;54.50;99628.34;4970430;28;1234;-69
2021/01/31 00:43:24;;;;;;;;;;;;;;;18.79;54.21;99628.44;4970206;28;1159;-70
2021/01/31 00:45:50;;;;;;;;;;;;;;;18.79;54.12;99641.63;4968702;28;1254;-70
2021/01/31 00:48:16;;;;;;;;;;;;;;;18.77;54.10;99633.00;4969935;28;1044;-70
2021/01/31 00:50:43;;;;;;;;;;;;;;;18.76;54.10;99644.50;4969572;28;1206;-69
2021/01/31 00:53:10;;;;;;;;;;;;;;;18.79;54.37;99646.06;4964117;28;1978;-67
2021/01/31 00:55:36;;;;;;;;;;;;;;;18.77;54.08;99646.19;4951844;28;1226;-66
2021/01/31 00:58:02;;;;;;;;;;;;;;;18.74;54.16;99651.69;4951849;28;1142;-67
2021/01/31 01:00:33;;;;;;;;;;;;;;;18.72;54.24;99653.63;4952041;28;1324;-67
2021/01/31 01:03:00;;;;;;;;;;;;;;;18.69;54.31;99632.75;4934800;29;916;-67
2021/01/31 01:05:28;;;;;;;;;;;;;;;18.68;54.37;99620.50;4951865;28;1238;-67
2021/01/31 01:07:55;;;;;;;;;;;;;;;18.65;54.21;99622.50;4951471;29;1128;-67
2021/01/31 01:10:22;;;;;;;;;;;;;;;18.67;54.25;99621.44;4951488;28;1253;-67
2021/01/31 01:12:48;;;;;;;;;;;;;;;18.63;54.50;99629.72;4951426;28;1902;-66
2021/01/31 01:15:16;;;;;;;;;;;;;;;18.67;54.53;99633.78;4951368;29;1324;-66
2021/01/31 01:17:42;;;;;;;;;;;;;;;18.66;54.72;99625.06;4951401;28;1017;-67
2021/01/31 01:20:09;;;;;;;;;;;;;;;18.66;54.77;99626.84;4965860;28;1210;-66
2021/01/31 01:22:36;;;;;;;;;;;;;;;18.65;54.83;99620.72;4934152;29;895;-67
2021/01/31 01:25:06;;;;;;;;;;;;;;;18.62;54.48;99623.59;4966021;28;1523;-66
2021/01/31 01:27:32;;;;;;;;;;;;;;;18.63;54.72;99616.53;4951550;29;732;-67
2021/01/31 01:29:59;;;;;;;;;;;;;;;18.63;54.59;99624.44;4951534;29;1265;-67
2021/01/31 01:32:25;;;;;;;;;;;;;;;18.61;54.84;99645.63;4950113;28;1911;-67
2021/01/31 01:34:52;;;;;;;;;;;;;;;18.61;54.89;99643.00;4932284;29;1293;-65
2021/01/31 01:37:18;;;;;;;;;;;;;;;18.65;54.92;99640.97;4948822;28;1247;-66
2021/01/31 01:39:45;;;;;;;;;;;;;;;18.62;55.05;99634.16;4950638;28;1383;-66
2021/01/31 01:42:12;;;;;;;;;;;;;;;18.60;54.86;99611.47;4933910;29;843;-66
2021/01/31 01:44:39;;;;;;;;;;;;;;;18.58;54.88;99637.94;4951643;28;1343;-65
2021/01/31 01:47:13;;;;;;;;;;;;;;;18.59;54.72;99626.47;4933541;29;1276;-66
2021/01/31 01:49:41;;;;;;;;;;;;;;;18.58;54.85;99630.03;4933699;29;1320;-66
2021/01/31 01:52:09;;;;;;;;;;;;;;;18.57;54.94;99611.69;4950886;28;1902;-67
2021/01/31 01:54:38;;;;;;;;;;;;;;;18.54;54.85;99618.06;4951202;28;1374;-67
2021/01/31 01:57:17;;;;;;;;;;;;;;;18.55;54.94;99619.72;4951012;29;823;-65
2021/01/31 01:59:44;;;;;;;;;;;;;;;18.53;54.58;99616.34;4951132;29;1206;-67
2021/01/31 02:02:29;;;;;;;;;;;;;;;18.52;54.54;99612.03;4951139;28;807;-67
2021/01/31 02:04:56;;;;;;;;;;;;;;;18.52;54.60;99617.31;4951198;29;1304;-66
2021/01/31 02:07:22;;;;;;;;;;;;;;;18.54;54.95;99618.06;4950622;28;799;-67
2021/01/31 02:09:50;;;;;;;;;;;;;;;18.53;54.69;99626.91;4950388;28;1350;-65
2021/01/31 02:12:21;;;;;;;;;;;;;;;18.53;54.92;99603.16;4950724;28;1906;-67
2021/01/31 02:14:49;;;;;;;;;;;;;;;18.52;55.13;99593.56;4950741;29;1273;-66
2021/01/31 02:17:15;;;;;;;;;;;;;;;18.50;55.15;99604.25;4950687;28;898;-66
2021/01/31 02:20:08;;;;;;;;;;;;;;;18.51;55.02;99594.53;4950842;29;1359;-66
2021/01/31 02:22:53;;;;;;;;;;;;;;;18.50;55.18;99598.13;4920371;29;1424;-67
2021/01/31 02:25:20;;;;;;;;;;;;;;;18.48;55.13;99581.56;4933466;29;1454;-67
2021/01/31 02:27:59;;;;;;;;;;;;;;;18.49;55.04;99588.53;4950598;29;1175;-66
2021/01/31 02:30:37;;;;;;;;;;;;;;;18.46;55.19;99584.28;4949304;29;1336;-66
2021/01/31 02:33:24;;;;;;;;;;;;;;;18.47;55.13;99578.06;4950919;29;1927;-66
2021/01/31 02:35:53;;;;;;;;;;;;;;;18.45;54.90;99565.97;4950721;29;1269;-66
2021/01/31 02:38:26;;;;;;;;;;;;;;;18.49;54.95;99559.50;4950864;28;1046;-66
2021/01/31 02:40:57;;;;;;;;;;;;;;;18.47;54.76;99559.59;4949723;29;1320;-67
2021/01/31 02:43:34;;;;;;;;;;;;;;;18.42;54.79;99576.72;4950818;29;1141;-66
2021/01/31 02:46:16;;;;;;;;;;;;;;;18.42;54.61;99560.91;4950757;29;1246;-66
2021/01/31 02:49:04;;;;;;;;;;;;;;;18.45;54.70;99565.97;4950797;28;986;-66
2021/01/31 02:51:51;;;;;;;;;;;;;;;18.47;54.94;99564.03;4954068;29;1254;-65
2021/01/31 02:54:20;;;;;;;;;;;;;;;18.46;55.13;99551.78;4954629;29;1902;-66
2021/01/31 02:56:55;;;;;;;;;;;;;;;18.44;55.22;99548.44;4954027;28;1210;-66
2021/01/31 02:59:25;;;;;;;;;;;;;;;18.46;54.96;99550.00;4936889;29;1065;-66
2021/01/31 03:01:57;;;;;;;;;;;;;;;18.43;55.03;99550.22;4953832;29;1234;-66
2021/01/31 03:04:29;;;;;;;;;;;;;;;18.43;54.97;99538.84;4954447;29;1057;-67
2021/01/31 03:06:58;;;;;;;;;;;;;;;18.41;55.09;99556.59;4936697;29;1341;-66
2021/01/31 03:09:43;;;;;;;;;;;;;;;18.40;54.89;99555.72;4936287;29;1290;-66
2021/01/31 03:12:10;;;;;;;;;;;;;;;18.43;54.76;99567.84;4945747;29;768;-67
2021/01/31 03:14:40;;;;;;;;;;;;;;;18.36;54.85;99556.09;4953880;28;1381;-66
2021/01/31 03:17:07;;;;;;;;;;;;;;;18.40;54.57;99578.63;4936506;29;819;-66
2021/01/31 03:19:40;;;;;;;;;;;;;;;18.38;54.63;99580.53;4920042;29;1344;-66
2021/01/31 03:22:12;;;;;;;;;;;;;;;18.40;54.58;99557.53;4935956;29;918;-66
2021/01/31 03:24:49;;;;;;;;;;;;;;;18.38;54.55;99554.16;4953555;28;1627;-68
2021/01/31 03:27:19;;;;;;;;;;;;;;;18.43;54.49;99573.13;4946567;29;831;-66
2021/01/31 03:29:45;;;;;;;;;;;;;;;18.40;54.58;99568.91;4953487;29;1363;-66
2021/01/31 03:32:21;;;;;;;;;;;;;;;18.39;54.70;99555.88;4951942;29;1907;-66
2021/01/31 03:34:56;;;;;;;;;;;;;;;18.35;54.42;99554.41;4953754;29;1344;-66
2021/01/31 03:37:24;;;;;;;;;;;;;;;18.36;54.64;99549.00;4951974;28;1256;-66
2021/01/31 03:39:53;;;;;;;;;;;;;;;18.31;54.43;99521.28;4936276;29;1285;-66
2021/01/31 03:42:20;;;;;;;;;;;;;;;18.33;54.25;99529.94;4936184;29;1088;-65
2021/01/31 03:44:46;;;;;;;;;;;;;;;18.34;54.21;99523.69;4953570;29;1289;-65
2021/01/31 03:47:17;;;;;;;;;;;;;;;18.31;54.22;99523.94;4953414;29;880;-66
2021/01/31 03:49:49;;;;;;;;;;;;;;;18.27;53.97;99533.03;4953584;29;1308;-67
2021/01/31 03:52:16;;;;;;;;;;;;;;;18.25;54.21;99524.38;4928668;29;1915;-67
2021/01/31 03:54:43;;;;;;;;;;;;;;;18.30;54.12;99519.63;4935652;29;1280;-67
2021/01/31 03:57:35;;;;;;;;;;;;;;;18.29;54.25;99533.75;4936065;29;1121;-67
2021/01/31 04:00:07;;;;;;;;;;;;;;;18.29;54.12;99533.75;4937517;28;1298;-67
2021/01/31 04:02:36;;;;;;;;;;;;;;;18.27;54.13;99531.22;4952109;29;835;-68
2021/01/31 04:05:03;;;;;;;;;;;;;;;18.29;54.04;99517.94;4951287;29;1371;-66
2021/01/31 04:07:32;;;;;;;;;;;;;;;18.28;54.24;99511.81;4952783;29;772;-67
2021/01/31 04:10:01;;;;;;;;;;;;;;;18.30;53.98;99509.09;4953111;29;1360;-66
2021/01/31 04:12:31;;;;;;;;;;;;;;;18.26;54.13;99512.91;4952478;28;1907;-66
2021/01/31 04:15:05;;;;;;;;;;;;;;;18.26;54.13;99528.72;4935169;29;1285;-66
2021/01/31 04:17:31;;;;;;;;;;;;;;;18.25;54.44;99532.28;4952701;29;1037;-66
2021/01/31 04:19:57;;;;;;;;;;;;;;;18.31;54.49;99526.56;4935545;29;1380;-67
2021/01/31 04:22:24;;;;;;;;;;;;;;;18.28;54.37;99532.06;4952549;28;816;-67
2021/01/31 04:24:50;;;;;;;;;;;;;;;18.25;54.34;99540.19;4951089;28;1493;-67
2021/01/31 04:27:16;;;;;;;;;;;;;;;18.28;54.32;99537.34;4953027;29;771;-67
2021/01/31 04:29:43;;;;;;;;;;;;;;;18.26;54.38;99534.81;4952685;29;1269;-67
2021/01/31 04:32:11;;;;;;;;;;;;;;;18.25;54.37;99508.56;4952564;29;1068;-66
2021/01/31 04:34:37;;;;;;;;;;;;;;;18.27;54.44;99536.50;4952819;29;1903;-66
2021/01/31 04:37:03;;;;;;;;;;;;;;;18.24;54.40;99555.16;4952582;29;776;-66
2021/01/31 04:39:30;;;;;;;;;;;;;;;18.25;54.15;99543.69;4952681;29;1066;-67
2021/01/31 04:41:56;;;;;;;;;;;;;;;18.22;54.09;99533.38;4952306;28;1246;-67
2021/01/31 04:44:22;;;;;;;;;;;;;;;18.25;54.48;99534.94;4952528;29;1119;-66
2021/01/31 04:46:51;;;;;;;;;;;;;;;18.25;54.39;99545.47;4950898;28;1300;-67
2021/01/31 04:49:46;;;;;;;;;;;;;;;18.28;54.25;99532.06;4952236;29;1289;-67
2021/01/31 04:52:34;;;;;;;;;;;;;;;18.25;54.45;99516.47;4935169;29;788;-66
2021/01/31 04:55:00;;;;;;;;;;;;;;;18.25;54.19;99533.13;4952258;28;1281;-66
2021/01/31 04:57:36;;;;;;;;;;;;;;;18.24;54.42;99549.09;4952164;28;775;-67
2021/01/31 05:00:04;;;;;;;;;;;;;;;18.21;54.20;99536.94;4935023;29;1317;-66
2021/01/31 05:02:39;;;;;;;;;;;;;;;18.22;54.30;99541.28;4951730;29;1113;-66
2021/01/31 05:05:11;;;;;;;;;;;;;;;18.23;54.51;99534.22;4952008;29;1280;-66
2021/01/31 05:08:06;;;;;;;;;;;;;;;18.22;54.25;99543.06;4951632;29;768;-67
2021/01/31 05:10:33;;;;;;;;;;;;;;;18.19;54.23;99536.22;4934999;29;1182;-67
2021/01/31 05:13:14;;;;;;;;;;;;;;;18.21;54.28;99528.22;4934325;29;1973;-67
2021/01/31 05:15:56;;;;;;;;;;;;;;;18.17;54.25;99526.75;4951682;29;1234;-67
2021/01/31 05:18:23;;;;;;;;;;;;;;;18.17;54.15;99524.97;4951664;29;1167;-67
2021/01/31 05:20:54;;;;;;;;;;;;;;;18.20;54.23;99524.75;4951365;29;1226;-67
2021/01/31 05:23:20;;;;;;;;;;;;;;;18.15;54.15;99523.41;4951610;29;1061;-67
2021/01/31 05:25:47;;;;;;;;;;;;;;;18.15;54.15;99526.03;4951573;29;1517;-68
2021/01/31 05:28:15;;;;;;;;;;;;;;;18.12;54.24;99531.53;4951487;28;1062;-68
2021/01/31 05:30:44;;;;;;;;;;;;;;;18.15;54.16;99524.22;4951266;29;1293;-67
2021/01/31 05:33:18;;;;;;;;;;;;;;;18.13;54.11;99515.59;4951140;29;1940;-67
2021/01/31 05:35:44;;;;;;;;;;;;;;;18.11;54.06;99529.84;4918328;29;1218;-67
2021/01/31 05:38:12;;;;;;;;;;;;;;;18.14;54.03;99524.34;4951342;29;1057;-67
2021/01/31 05:40:40;;;;;;;;;;;;;;;18.11;53.93;99535.09;4933784;29;1222;-67
2021/01/31 05:43:11;;;;;;;;;;;;;;;18.13;53.93;99525.28;4951127;29;1065;-67
2021/01/31 05:45:39;;;;;;;;;;;;;;;18.11;53.84;99541.22;4951358;29;1347;-67
2021/01/31 05:48:16;;;;;;;;;;;;;;;18.12;53.88;99521.00;4951199;29;904;-67
2021/01/31 05:50:43;;;;;;;;;;;;;;;18.10;54.26;99517.59;4951111;29;1320;-67
2021/01/31 05:53:30;;;;;;;;;;;;;;;18.10;53.81;99518.44;4951081;29;1927;-68
2021/01/31 05:56:15;;;;;;;;;;;;;;;18.09;53.87;99515.94;4950671;28;1207;-67
2021/01/31 05:58:41;;;;;;;;;;;;;;;18.11;53.74;99514.03;4933803;29;1236;-68
2021/01/31 06:01:09;;;;;;;;;;;;;;;18.07;53.93;99515.19;4949421;29;1292;-67
2021/01/31 06:03:36;;;;;;;;;;;;;;;18.10;53.89;99517.59;4933589;29;1136;-67
2021/01/31 06:06:09;;;;;;;;;;;;;;;18.08;54.13;99520.38;4933709;29;1175;-67
2021/01/31 06:08:36;;;;;;;;;;;;;;;18.10;53.94;99522.88;4950978;29;1100;-67
2021/01/31 06:11:04;;;;;;;;;;;;;;;18.13;53.65;99522.66;4933367;29;1280;-67
2021/01/31 06:13:30;;;;;;;;;;;;;;;18.13;53.56;99530.56;4933652;29;2006;-67
2021/01/31 06:16:06;;;;;;;;;;;;;;;18.08;53.46;99530.06;4933042;29;1242;-66
2021/01/31 06:18:44;;;;;;;;;;;;;;;18.10;53.52;99522.88;4932922;29;1297;-67
2021/01/31 06:21:12;;;;;;;;;;;;;;;18.08;53.95;99530.06;4950814;29;1288;-67
2021/01/31 06:23:43;;;;;;;;;;;;;;;18.09;53.76;99522.03;4950434;28;1004;-66
2021/01/31 06:26:23;;;;;;;;;;;;;;;18.07;53.75;99517.81;4954009;29;1427;-67
2021/01/31 06:28:52;;;;;;;;;;;;;;;18.07;54.16;99525.72;4953709;29;850;-66
2021/01/31 06:31:28;;;;;;;;;;;;;;;18.04;54.21;99534.72;4953494;28;1222;-67
2021/01/31 06:33:54;;;;;;;;;;;;;;;18.06;54.01;99532.78;4953124;29;1906;-67
2021/01/31 06:36:24;;;;;;;;;;;;;;;18.04;54.31;99555.78;4951731;28;1287;-66
2021/01/31 06:39:07;;;;;;;;;;;;;;;18.05;53.94;99561.91;4953661;29;809;-65
2021/01/31 06:41:52;;;;;;;;;;;;;;;18.06;54.18;99555.66;4952765;29;1355;-64
2021/01/31 06:44:24;;;;;;;;;;;;;;;18.02;54.12;99532.16;4920162;29;1226;-65
2021/01/31 06:47:03;;;;;;;;;;;;;;;18.01;53.94;99567.41;4952872;28;1209;-64
2021/01/31 06:53:38;;;;;;;;;;;;;;;18.00;54.21;99563.06;5106709;27;1245;-65
2021/01/31 06:56:17;;;;;;;;;;;;;;;18.05;54.36;99567.19;5104846;28;1279;-69
2021/01/31 06:58:59;;;;;;;;;;;;;;;18.06;54.44;99558.28;5106604;28;785;-64
2021/01/31 07:01:44;;;;;;;;;;;;;;;18.05;54.40;99564.53;5105000;28;1322;-64
2021/01/31 07:04:24;;;;;;;;;;;;;;;18.03;54.40;99597.09;5106326;28;1108;-65
2021/01/31 07:06:50;;;;;;;;;;;;;;;18.05;54.55;99577.72;5106163;28;1264;-66
2021/01/31 07:09:29;;;;;;;;;;;;;;;18.06;54.34;99571.47;5106322;28;876;-65
2021/01/31 07:12:01;;;;;;;;;;;;;;;18.02;54.38;99592.78;5104857;28;1914;-65
2021/01/31 07:14:41;;;;;;;;;;;;;;;17.99;54.35;99603.53;5087265;28;1381;-64
2021/01/31 07:17:22;;;;;;;;;;;;;;;17.99;54.32;99582.44;5106044;28;912;-66
2021/01/31 07:20:04;;;;;;;;;;;;;;;17.98;54.41;99593.97;5104698;28;1402;-66
2021/01/31 07:22:55;;;;;;;;;;;;;;;18.00;54.11;99602.59;5104846;28;1123;-67
2021/01/31 07:25:39;;;;;;;;;;;;;;;17.98;54.22;99608.94;5105783;28;1280;-66
2021/01/31 07:28:17;;;;;;;;;;;;;;;18.00;54.15;99625.47;5088282;28;1226;-65
2021/01/31 07:30:52;;;;;;;;;;;;;;;17.94;54.08;99647.81;5087898;28;1256;-65
2021/01/31 07:36:36;;;;;;;;;;;;;;;17.94;54.35;99646.97;5190046;22;1702;-67
2021/01/31 07:39:11;;;;;;;;;;;;;;;17.97;54.21;99642.34;5044054;28;1234;-67
2021/01/31 07:41:42;;;;;;;;;;;;;;;17.95;54.19;99640.75;5040066;28;1229;-68
2021/01/31 07:44:12;;;;;;;;;;;;;;;17.88;54.05;99645.63;5026640;28;1717;-68
2021/01/31 07:46:41;;;;;;;;;;;;;;;17.94;54.13;99650.47;5022418;28;1314;-70
2021/01/31 07:49:07;;;;;;;;;;;;;;;17.93;54.03;99647.94;5021053;28;1629;-68
2021/01/31 07:51:37;;;;;;;;;;;;;;;17.96;54.58;99648.53;5022758;28;1977;-64
2021/01/31 07:54:20;;;;;;;;;;;;;;;18.17;54.08;99638.28;5024332;28;1657;-64
2021/01/31 07:56:46;;;;;;;;;;;;;;;18.11;51.62;99609.75;5022797;28;1433;-64
2021/01/31 07:59:12;;;;;;;;;;;;;;;17.81;52.12;99619.84;5022028;28;1148;-64
2021/01/31 08:01:39;;;;;;;;;;;;;;;17.70;52.60;99607.41;5023728;28;1308;-64
2021/01/31 08:04:15;;;;;;;;;;;;;;;17.76;52.53;99601.69;5014651;28;1057;-67
2021/01/31 08:06:41;;;;;;;;;;;;;;;17.76;51.34;99617.50;5010145;28;1547;-69
2021/01/31 08:09:07;;;;;;;;;;;;;;;17.78;51.96;99618.22;5008953;28;1335;-65
2021/01/31 08:11:37;;;;;;;;;;;;;;;17.92;51.00;99617.28;5009664;28;1969;-70
2021/01/31 08:14:04;;;;;;;;;;;;;;;18.08;50.68;99601.22;5011844;28;1043;-71
2021/01/31 08:16:40;;;;;;;;;;;;;;;18.11;49.76;99603.63;5010052;28;1237;-69
2021/01/31 08:19:09;;;;;;;;;;;;;;;18.11;49.87;99612.38;5010344;28;1027;-68
2021/01/31 08:21:47;;;;;;;;;;;;;;;18.11;49.85;99607.13;5010341;28;1416;-72
2021/01/31 08:24:14;;;;;;;;;;;;;;;18.12;50.20;99621.13;5011627;28;1123;-68
2021/01/31 08:26:42;;;;;;;;;;;;;;;18.23;51.11;99608.88;5011327;28;1221;-68
2021/01/31 08:29:16;;;;;;;;;;;;;;;18.28;51.28;99642.78;5009321;28;1661;-66
2021/01/31 08:32:05;;;;;;;;;;;;;;;18.28;50.13;99608.50;5010634;28;1965;-65
2021/01/31 08:34:51;;;;;;;;;;;;;;;18.28;50.48;99624.31;5002760;28;1118;-68
2021/01/31 08:37:22;;;;;;;;;;;;;;;18.28;50.76;99612.00;4992598;28;1664;-65
2021/01/31 08:39:49;;;;;;;;;;;;;;;18.33;50.74;99619.59;5019020;28;1331;-65
2021/01/31 08:42:16;;;;;;;;;;;;;;;18.31;50.83;99640.78;4991530;28;1060;-66
2021/01/31 08:44:54;;;;;;;;;;;;;;;18.37;50.89;99645.59;4991548;28;1264;-65
2021/01/31 08:47:20;;;;;;;;;;;;;;;18.43;50.90;99660.13;4991427;28;771;-73
2021/01/31 08:49:56;;;;;;;;;;;;;;;18.42;51.02;99671.66;4991369;28;1273;-72
2021/01/31 08:52:23;;;;;;;;;;;;;;;18.40;50.78;99674.38;4989876;28;1973;-73
2021/01/31 08:55:00;;;;;;;;;;;;;;;18.44;50.84;99680.28;4989894;28;1358;-71
2021/01/31 08:57:26;;;;;;;;;;;;;;;18.44;50.86;99680.28;4989715;28;858;-67
2021/01/31 08:59:53;;;;;;;;;;;;;;;18.46;50.95;99691.56;4991525;28;1383;-68
2021/01/31 09:02:21;;;;;;;;;;;;;;;18.49;50.58;99694.00;4991101;28;1024;-67
2021/01/31 09:04:53;;;;;;;;;;;;;;;18.43;50.84;99684.72;4991097;28;1370;-68
2021/01/31 09:07:22;;;;;;;;;;;;;;;18.50;50.95;99716.78;5023875;28;1469;-66
2021/01/31 09:10:00;;;;;;;;;;;;;;;18.53;50.54;99711.28;5010392;28;1547;-67
2021/01/31 09:12:27;;;;;;;;;;;;;;;18.52;50.40;99713.09;5009824;28;1972;-70
2021/01/31 09:15:04;;;;;;;;;;;;;;;18.65;52.37;99715.69;5007850;28;1494;-68
2021/01/31 09:17:30;;;;;;;;;;;;;;;18.72;50.26;99731.91;5014294;28;1779;-71
2021/01/31 09:20:09;;;;;;;;;;;;;;;18.64;50.24;99737.72;5018097;28;1428;-70
2021/01/31 09:22:38;;;;;;;;;;;;;;;18.62;51.03;99718.53;5018023;28;1253;-70
2021/01/31 09:25:05;;;;;;;;;;;;;;;18.59;50.37;99716.13;4997829;28;1430;-69
2021/01/31 09:27:32;;;;;;;;;;;;;;;18.61;50.45;99723.91;5007277;28;937;-69
2021/01/31 09:30:06;;;;;;;;;;;;;;;18.62;53.26;99737.00;5006434;28;1375;-70
2021/01/31 09:32:38;;;;;;;;;;;;;;;18.57;50.72;99739.16;5007093;28;1907;-70
2021/01/31 09:35:06;;;;;;;;;;;;;;;18.55;49.83;99735.75;5008780;28;1435;-69
2021/01/31 09:37:32;;;;;;;;;;;;;;;18.54;49.94;99739.38;4988978;28;1060;-72
2021/01/31 09:40:00;;;;;;;;;;;;;;;18.55;50.93;99746.31;5008716;28;1281;-71
2021/01/31 09:42:28;;;;;;;;;;;;;;;18.52;49.92;99734.19;5009046;28;866;-70
2021/01/31 09:44:56;;;;;;;;;;;;;;;18.51;49.98;99734.31;4991054;28;1243;-71
2021/01/31 09:47:23;;;;;;;;;;;;;;;18.53;50.09;99735.88;4974898;28;1573;-69
2021/01/31 09:50:03;;;;;;;;;;;;;;;18.53;49.83;99735.03;4989597;28;1320;-72
2021/01/31 09:52:30;;;;;;;;;;;;;;;18.55;49.88;99733.97;5007693;28;1922;-69
2021/01/31 09:54:56;;;;;;;;;;;;;;;18.55;50.18;99723.41;4990647;28;1395;-69
2021/01/31 09:57:26;;;;;;;;;;;;;;;18.55;50.50;99704.09;5008840;28;747;-70
2021/01/31 10:00:09;;;;;;;;;;;;;;;18.58;54.21;99708.31;5008851;28;1245;-69
2021/01/31 10:02:37;;;;;;;;;;;;;;;18.61;51.42;99695.75;4991459;28;846;-69
2021/01/31 10:05:05;;;;;;;;;;;;;;;18.61;51.42;99692.25;5009579;28;1272;-68
2021/01/31 10:07:33;;;;;;;;;;;;;;;18.68;53.53;99691.72;5009406;28;961;-68
2021/01/31 10:10:18;;;;;;;;;;;;;;;18.72;55.75;99700.25;4991838;28;1434;-67
2021/01/31 10:12:45;;;;;;;;;;;;;;;18.86;56.29;99700.94;4990338;28;2005;-69
2021/01/31 10:15:11;;;;;;;;;;;;;;;18.87;56.18;99686.78;5009201;28;1358;-68
2021/01/31 10:17:45;;;;;;;;;;;;;;;18.95;55.61;99681.78;5008604;28;1509;-69
2021/01/31 10:20:29;;;;;;;;;;;;;;;18.88;55.12;99690.25;5009629;28;1283;-75
2021/01/31 10:22:59;;;;;;;;;;;;;;;18.77;53.01;99661.19;4991263;28;1143;-71
2021/01/31 10:25:26;;;;;;;;;;;;;;;18.66;51.46;99685.72;5008937;28;1335;-75
2021/01/31 10:28:32;;;;;;;;;;;;;;;18.58;52.15;99687.22;4991121;28;1199;-79
2021/01/31 10:30:58;;;;;;;;;;;;;;;18.57;52.11;99686.41;4968779;28;1265;-75
2021/01/31 10:33:38;;;;;;;;;;;;;;;18.57;52.06;99673.22;4991467;28;1906;-75
2021/01/31 10:36:26;;;;;;;;;;;;;;;18.52;52.25;99677.94;5008876;28;1284;-72
2021/01/31 10:38:54;;;;;;;;;;;;;;;18.46;52.59;99673.09;4990251;28;1349;-73
2021/01/31 10:41:20;;;;;;;;;;;;;;;18.44;52.69;99667.94;5009457;28;1276;-73
2021/01/31 10:43:56;;;;;;;;;;;;;;;18.40;52.65;99671.75;5008821;28;910;-73
2021/01/31 10:46:23;;;;;;;;;;;;;;;18.40;52.69;99673.53;5008503;28;1316;-73
2021/01/31 10:48:49;;;;;;;;;;;;;;;18.39;52.92;99650.78;5008801;28;842;-73
2021/01/31 10:51:19;;;;;;;;;;;;;;;18.37;52.94;99665.84;4990636;28;1312;-73
2021/01/31 10:53:45;;;;;;;;;;;;;;;18.34;53.00;99652.88;5008052;28;1981;-73
2021/01/31 10:56:12;;;;;;;;;;;;;;;18.33;53.04;99661.78;4990837;28;1309;-73
2021/01/31 10:58:38;;;;;;;;;;;;;;;18.31;53.20;99646.03;5008733;28;846;-73
2021/01/31 11:01:04;;;;;;;;;;;;;;;18.28;53.33;99653.31;4991264;28;1308;-73
2021/01/31 11:03:31;;;;;;;;;;;;;;;18.28;53.20;99638.34;5008513;28;1199;-72
2021/01/31 11:05:57;;;;;;;;;;;;;;;18.24;53.30;99671.16;4991021;28;1356;-73
2021/01/31 11:08:26;;;;;;;;;;;;;;;18.25;53.17;99654.41;4991421;28;1198;-73
2021/01/31 11:10:55;;;;;;;;;;;;;;;18.23;53.10;99639.66;5008513;28;1277;-73
2021/01/31 11:13:21;;;;;;;;;;;;;;;18.24;53.01;99680.88;5009136;28;1970;-74
2021/01/31 11:15:47;;;;;;;;;;;;;;;18.21;53.12;99671.38;4990569;28;1315;-75
2021/01/31 11:18:14;;;;;;;;;;;;;;;18.29;52.31;99649.75;4990501;28;1597;-74
2021/01/31 11:20:41;;;;;;;;;;;;;;;18.24;50.27;99628.97;4990354;28;1250;-71
2021/01/31 11:23:07;;;;;;;;;;;;;;;18.24;51.65;99654.53;4974702;28;1234;-72
2021/01/31 11:25:33;;;;;;;;;;;;;;;18.16;52.11;99648.94;4991043;28;1252;-72
2021/01/31 11:28:00;;;;;;;;;;;;;;;18.24;52.28;99642.16;4990740;28;1219;-73
2021/01/31 11:30:27;;;;;;;;;;;;;;;18.23;52.16;99642.28;5007822;28;1336;-81
2021/01/31 11:32:54;;;;;;;;;;;;;;;18.28;52.80;99646.25;4989263;28;1956;-80
2021/01/31 11:35:20;;;;;;;;;;;;;;;18.27;52.66;99672.75;4986361;28;1280;-75
2021/01/31 11:37:47;;;;;;;;;;;;;;;18.17;52.91;99648.00;4972935;28;1257;-75
2021/01/31 11:40:13;;;;;;;;;;;;;;;18.17;53.28;99651.47;5021234;28;1272;-74
2021/01/31 11:42:40;;;;;;;;;;;;;;;18.20;53.10;99630.16;5016660;28;1141;-74
2021/01/31 11:45:07;;;;;;;;;;;;;;;18.23;53.23;99658.94;5011014;28;1383;-76
2021/01/31 11:47:33;;;;;;;;;;;;;;;18.25;52.66;99648.28;4992049;28;1272;-73
2021/01/31 11:50:03;;;;;;;;;;;;;;;18.29;52.53;99649.75;5002832;28;1233;-73
2021/01/31 11:52:30;;;;;;;;;;;;;;;18.31;52.52;99639.94;5018155;28;1993;-74
2021/01/31 11:54:56;;;;;;;;;;;;;;;18.34;52.39;99659.00;5016539;28;1308;-74
2021/01/31 11:57:22;;;;;;;;;;;;;;;18.37;52.15;99648.25;5009380;28;1544;-72
2021/01/31 11:59:48;;;;;;;;;;;;;;;18.38;52.27;99655.19;5021061;28;1302;-72
2021/01/31 12:02:16;;;;;;;;;;;;;;;18.39;51.99;99634.97;5002385;28;1261;-73
2021/01/31 12:04:43;;;;;;;;;;;;;;;18.41;52.69;99614.59;5004420;28;1383;-73
2021/01/31 12:07:12;;;;;;;;;;;;;;;18.42;52.85;99629.47;5027727;28;1154;-75
2021/01/31 12:09:39;;;;;;;;;;;;;;;18.36;53.15;99628.09;5016917;28;1295;-72
2021/01/31 12:12:06;;;;;;;;;;;;;;;18.45;53.34;99642.44;5020857;28;1918;-75
2021/01/31 12:14:32;;;;;;;;;;;;;;;18.42;52.88;99616.28;5016236;28;1280;-75
2021/01/31 12:17:00;;;;;;;;;;;;;;;18.44;52.92;99630.19;5027680;28;1058;-73
2021/01/31 12:19:26;;;;;;;;;;;;;;;18.45;53.25;99637.16;4996965;28;1297;-73
2021/01/31 12:21:54;;;;;;;;;;;;;;;18.45;53.22;99634.50;5022237;28;1244;-74
2021/01/31 12:24:20;;;;;;;;;;;;;;;18.46;54.29;99639.66;4998353;28;1284;-74
2021/01/31 12:26:49;;;;;;;;;;;;;;;18.48;55.88;99639.56;5008177;28;1363;-74
2021/01/31 12:29:27;;;;;;;;;;;;;;;18.49;55.85;99633.34;4979789;28;1294;-78
2021/01/31 12:31:54;;;;;;;;;;;;;;;18.49;55.94;99621.00;5004375;28;1985;-74
2021/01/31 12:34:20;;;;;;;;;;;;;;;18.50;55.67;99627.13;5015986;28;1145;-74
2021/01/31 12:36:46;;;;;;;;;;;;;;;18.51;55.41;99628.81;4991280;28;1484;-73
2021/01/31 12:39:13;;;;;;;;;;;;;;;18.51;55.14;99629.63;5011158;28;1094;-74
2021/01/31 12:41:39;;;;;;;;;;;;;;;18.49;55.31;99625.44;5016597;28;1351;-76
2021/01/31 12:44:06;;;;;;;;;;;;;;;18.51;55.40;99628.81;4986429;28;1236;-74
2021/01/31 12:46:32;;;;;;;;;;;;;;;18.51;55.34;99629.63;5023615;28;1233;-76
2021/01/31 12:48:58;;;;;;;;;;;;;;;18.52;54.10;99631.34;5012529;28;1161;-78
2021/01/31 12:51:25;;;;;;;;;;;;;;;18.55;52.54;99607.38;5013959;28;1315;-70
2021/01/31 12:53:52;;;;;;;;;;;;;;;18.62;53.15;99622.75;5012168;28;1930;-71
2021/01/31 12:56:18;;;;;;;;;;;;;;;18.61;54.14;99629.81;4991830;28;1248;-71
2021/01/31 12:58:45;;;;;;;;;;;;;;;18.60;54.81;99614.97;5005629;28;1130;-69
2021/01/31 13:01:11;;;;;;;;;;;;;;;18.58;54.65;99602.81;5014284;28;1394;-69
2021/01/31 13:03:39;;;;;;;;;;;;;;;18.66;55.34;99616.31;4997691;28;1005;-78
2021/01/31 13:06:06;;;;;;;;;;;;;;;18.63;55.92;99606.81;5019287;28;1226;-72
2021/01/31 13:08:35;;;;;;;;;;;;;;;18.63;56.08;99600.69;4998031;28;1238;-75
2021/01/31 13:11:02;;;;;;;;;;;;;;;18.63;56.09;99600.69;5005182;28;1449;-71
2021/01/31 13:13:31;;;;;;;;;;;;;;;18.67;56.05;99600.34;4979658;28;1984;-72
2021/01/31 13:15:57;;;;;;;;;;;;;;;18.71;55.58;99603.59;5027763;28;1467;-73
2021/01/31 13:18:24;;;;;;;;;;;;;;;18.70;56.21;99602.75;4986396;28;1589;-76
2021/01/31 13:20:51;;;;;;;;;;;;;;;18.69;56.27;99593.19;4996839;28;1319;-73
2021/01/31 13:23:18;;;;;;;;;;;;;;;18.68;56.54;99586.22;4984208;28;1266;-75